Time;durP1;ratioP1;P1;durP2;ratioP2;P2;SDS_P1;SDS_P2;PMS_P1;PMS_P2;Temp;Humidity;BMP_temperature;BMP_pressure;BME280_temperature;BME280_humidity;BME280_pressure;Samples;Min_cycle;Max_cycle;Signal;HPM_P1;HPM_P2
2021/12/20 00:01:04;;;;;;;0.60;0.60;;;6.00;99.90;;;;;;5098095;28;20475;-87
2021/12/20 00:03:30;;;;;;;0.50;0.50;;;6.00;99.90;;;;;;5097974;28;20028;-86
2021/12/20 00:05:55;;;;;;;0.50;0.50;;;5.80;99.90;;;;;;5098126;28;20391;-87
2021/12/20 00:08:21;;;;;;;0.50;0.50;;;6.10;99.90;;;;;;5098087;28;20039;-85
2021/12/20 00:10:46;;;;;;;0.52;0.52;;;5.90;99.90;;;;;;5114991;28;20093;-84
2021/12/20 00:13:12;;;;;;;0.50;0.50;;;5.90;99.90;;;;;;5097914;28;20509;-86
2021/12/20 00:15:38;;;;;;;0.50;0.50;;;5.80;99.90;;;;;;5097943;28;20046;-85
2021/12/20 00:18:04;;;;;;;0.60;0.60;;;5.80;99.90;;;;;;5098336;28;20082;-85
2021/12/20 00:20:29;;;;;;;0.50;0.50;;;6.10;99.90;;;;;;5098000;28;20496;-87
2021/12/20 00:22:55;;;;;;;0.50;0.50;;;5.70;99.90;;;;;;5097944;28;20038;-87
2021/12/20 00:25:21;;;;;;;0.60;0.60;;;6.20;99.90;;;;;;5097826;28;20036;-86
2021/12/20 00:27:46;;;;;;;0.65;0.65;;;5.60;99.90;;;;;;5098777;28;20040;-85
2021/12/20 00:30:12;;;;;;;0.50;0.50;;;5.30;99.90;;;;;;5102508;28;20047;-84
2021/12/20 00:32:40;;;;;;;0.50;0.50;;;5.60;99.90;;;;;;5101502;28;20032;-86
2021/12/20 00:35:06;;;;;;;0.60;0.60;;;5.40;99.90;;;;;;5097746;28;20555;-85
2021/12/20 00:40:23;;;;;;;1.10;1.05;;;6.10;99.90;;;;;;5114386;28;20039;-87
2021/12/20 00:42:54;;;;;;;0.52;0.52;;;5.20;99.90;;;;;;5097439;28;20050;-87
2021/12/20 00:45:21;;;;;;;0.50;0.50;;;5.10;99.90;;;;;;5097554;28;20042;-85
2021/12/20 00:47:47;;;;;;;0.50;0.50;;;5.00;99.90;;;;;;5114084;28;20035;-84
2021/12/20 00:50:15;;;;;;;0.50;0.50;;;7.50;99.90;;;;;;5114569;28;20042;-86
2021/12/20 00:52:45;;;;;;;0.60;0.60;;;4.90;99.90;;;;;;5097019;28;20126;-85
2021/12/20 00:55:15;;;;;;;0.50;0.50;;;4.60;99.90;;;;;;5097351;28;20034;-88
2021/12/20 00:57:45;;;;;;;0.60;0.60;;;4.80;99.90;;;;;;5114292;28;20476;-85
2021/12/20 01:00:12;;;;;;;0.50;0.50;;;4.70;99.90;;;;;;5097269;28;20035;-86
2021/12/20 01:02:38;;;;;;;0.60;0.60;;;4.60;99.90;;;;;;5097321;28;20047;-85
2021/12/20 01:05:05;;;;;;;0.60;0.60;;;4.40;99.90;;;;;;5097354;28;20105;-86
2021/12/20 01:07:31;;;;;;;0.50;0.50;;;4.40;99.90;;;;;;5097008;28;20051;-84
2021/12/20 01:10:03;;;;;;;0.82;0.82;;;4.30;99.90;;;;;;5114472;28;20364;-86
2021/12/20 01:12:35;;;;;;;0.60;0.60;;;4.30;99.90;;;;;;5113867;28;20052;-84
2021/12/20 01:15:02;;;;;;;0.60;0.60;;;4.20;99.90;;;;;;5113875;28;20044;-85
2021/12/20 01:17:29;;;;;;;0.60;0.60;;;4.00;99.90;;;;;;5113779;28;20039;-87
2021/12/20 01:19:55;;;;;;;0.60;0.60;;;4.10;99.90;;;;;;5096809;28;20035;-88
2021/12/20 01:22:20;;;;;;;0.60;0.60;;;4.00;99.90;;;;;;5096849;28;20035;-85
2021/12/20 01:24:46;;;;;;;0.60;0.60;;;4.20;99.90;;;;;;5096895;28;20032;-88
2021/12/20 01:27:12;;;;;;;0.90;0.90;;;3.50;99.90;;;;;;5097325;28;20066;-85
2021/12/20 01:29:37;;;;;;;0.60;0.60;;;3.80;99.90;;;;;;5114817;28;20455;-86
2021/12/20 01:32:03;;;;;;;0.60;0.60;;;3.70;99.90;;;;;;5097427;28;20054;-87
2021/12/20 01:34:29;;;;;;;0.60;0.60;;;3.70;99.90;;;;;;5096454;28;20046;-86
2021/12/20 01:36:55;;;;;;;0.60;0.60;;;3.60;99.90;;;;;;5097460;28;20042;-85
2021/12/20 01:39:22;;;;;;;0.60;0.60;;;4.50;99.90;;;;;;5096693;28;20036;-88
2021/12/20 01:41:51;;;;;;;0.60;0.60;;;3.50;99.90;;;;;;5096600;28;20032;-85
2021/12/20 01:44:17;;;;;;;0.60;0.60;;;2.50;99.90;;;;;;5096727;28;20123;-86
2021/12/20 01:46:43;;;;;;;0.60;0.60;;;3.40;99.90;;;;;;5096472;28;20126;-88
2021/12/20 01:49:12;;;;;;;0.60;0.60;;;3.40;99.90;;;;;;5096547;28;20047;-87
2021/12/20 01:54:17;;;;;;;0.70;0.70;;;3.30;99.90;;;;;;5113409;28;20047;-89
2021/12/20 01:56:44;;;;;;;0.60;0.60;;;3.20;99.90;;;;;;5096435;28;20541;-84
2021/12/20 01:59:11;;;;;;;0.60;0.60;;;3.00;99.90;;;;;;5095859;28;20028;-85
2021/12/20 02:01:37;;;;;;;1.10;1.08;;;4.10;99.90;;;;;;5096333;28;20043;-84
2021/12/20 02:04:06;;;;;;;0.60;0.60;;;3.10;99.90;;;;;;5096638;28;20040;-88
2021/12/20 02:06:41;;;;;;;0.60;0.60;;;3.00;99.90;;;;;;5096699;28;20391;-85
2021/12/20 02:09:15;;;;;;;0.60;0.60;;;3.00;99.90;;;;;;5095907;28;20088;-85
2021/12/20 02:11:43;;;;;;;0.60;0.60;;;2.90;99.90;;;;;;5096159;28;20047;-88
2021/12/20 02:14:10;;;;;;;0.60;0.60;;;3.30;99.90;;;;;;5096363;28;20118;-86
2021/12/20 02:16:38;;;;;;;0.60;0.60;;;2.80;99.90;;;;;;5113322;28;20488;-87
2021/12/20 02:19:07;;;;;;;0.60;0.60;;;2.80;99.90;;;;;;5096177;28;20036;-88
2021/12/20 02:21:34;;;;;;;0.60;0.60;;;3.20;99.90;;;;;;5095877;28;20487;-87
2021/12/20 02:23:59;;;;;;;0.60;0.60;;;2.70;99.90;;;;;;5095910;28;20035;-86
2021/12/20 02:26:26;;;;;;;0.60;0.60;;;2.70;99.90;;;;;;5095962;28;20040;-88
2021/12/20 02:28:54;;;;;;;0.60;0.60;;;4.40;99.90;;;;;;5096437;28;20420;-87
2021/12/20 02:37:14;;;;;;;0.60;0.60;;;2.50;99.90;;;;;;5112889;28;20047;-86
2021/12/20 02:39:40;;;;;;;0.70;0.70;;;2.60;99.90;;;;;;5096160;28;20114;-87
2021/12/20 02:42:06;;;;;;;0.60;0.60;;;5.20;99.90;;;;;;5096052;28;20598;-87
2021/12/20 02:44:32;;;;;;;0.60;0.60;;;2.40;99.90;;;;;;5096102;28;20047;-86
2021/12/20 02:49:27;;;;;;;0.60;0.60;;;2.40;99.90;;;;;;5112892;28;20043;-87
2021/12/20 02:51:58;;;;;;;0.60;0.60;;;2.30;99.90;;;;;;5095707;28;20066;-85
2021/12/20 02:54:24;;;;;;;0.60;0.60;;;2.10;99.90;;;;;;5095631;28;20032;-87
2021/12/20 02:56:50;;;;;;;0.70;0.70;;;2.10;99.90;;;;;;5096064;28;20035;-86
2021/12/20 02:59:17;;;;;;;0.60;0.60;;;2.20;99.90;;;;;;5095927;28;20543;-88
2021/12/20 03:01:52;;;;;;;0.70;0.70;;;5.80;99.90;;;;;;5096470;28;20043;-86
2021/12/20 03:04:18;;;;;;;0.60;0.60;;;2.10;99.90;;;;;;5096001;28;20040;-87
2021/12/20 03:06:48;;;;;;;0.70;0.70;;;2.10;99.90;;;;;;5095987;28;20031;-90
2021/12/20 03:09:18;;;;;;;0.70;0.70;;;2.00;99.90;;;;;;5095776;28;20081;-87
2021/12/20 03:11:46;;;;;;;0.70;0.70;;;3.50;99.90;;;;;;5099374;28;20510;-86
2021/12/20 03:14:24;;;;;;;0.70;0.70;;;2.00;99.90;;;;;;5099279;28;20127;-85
2021/12/20 03:16:49;;;;;;;0.70;0.70;;;2.00;99.90;;;;;;5104358;28;20042;-84
2021/12/20 03:19:15;;;;;;;0.70;0.70;;;2.00;99.90;;;;;;5115971;28;20066;-85
2021/12/20 03:21:41;;;;;;;0.70;0.70;;;2.90;99.90;;;;;;5102225;28;20040;-88
2021/12/20 03:24:07;;;;;;;0.70;0.70;;;1.90;99.90;;;;;;5100739;28;20035;-90
2021/12/20 03:26:33;;;;;;;0.67;0.67;;;1.90;99.90;;;;;;5100491;28;20035;-87
2021/12/20 03:28:59;;;;;;;0.70;0.70;;;2.30;99.90;;;;;;5100197;28;20273;-87
2021/12/20 03:31:25;;;;;;;0.60;0.60;;;3.20;99.90;;;;;;5104682;28;20130;-86
2021/12/20 03:33:51;;;;;;;0.70;0.70;;;;;;;;;;5105515;28;20039;-85
2021/12/20 03:36:17;;;;;;;0.70;0.70;;;1.80;99.90;;;;;;5099312;28;20042;-85
2021/12/20 03:38:43;;;;;;;0.60;0.60;;;1.60;99.90;;;;;;5099786;28;20043;-87
2021/12/20 03:41:09;;;;;;;0.60;0.60;;;1.70;99.90;;;;;;5099198;28;20043;-88
2021/12/20 03:43:35;;;;;;;0.60;0.60;;;5.60;99.90;;;;;;5099533;28;20396;-88
2021/12/20 03:46:05;;;;;;;0.70;0.70;;;1.70;99.90;;;;;;5099098;28;20040;-87
2021/12/20 03:48:32;;;;;;;0.60;0.60;;;1.60;99.90;;;;;;5099826;28;20038;-85
2021/12/20 03:51:01;;;;;;;0.70;0.70;;;1.20;99.90;;;;;;5099318;28;20395;-86
2021/12/20 03:53:28;;;;;;;0.60;0.60;;;1.60;99.90;;;;;;5098682;28;20077;-87
2021/12/20 03:55:54;;;;;;;;;;;1.20;99.90;;;;;;5099551;28;20039;-88
2021/12/20 03:58:20;;;;;;;0.60;0.60;;;1.50;99.90;;;;;;5098884;28;19963;-87
2021/12/20 04:00:47;;;;;;;0.70;0.70;;;1.30;99.90;;;;;;5102000;28;20096;-88
2021/12/20 04:03:14;;;;;;;0.70;0.70;;;1.40;99.90;;;;;;5100401;28;20383;-87
2021/12/20 04:05:41;;;;;;;0.70;0.70;;;1.50;99.90;;;;;;5098939;28;20104;-87
2021/12/20 04:08:08;;;;;;;;;;;1.40;99.90;;;;;;5098794;28;20079;-88
2021/12/20 04:10:34;;;;;;;2.50;2.38;;;1.30;99.90;;;;;;5098515;28;19916;-85
2021/12/20 04:13:00;;;;;;;0.70;0.70;;;1.40;99.90;;;;;;5098347;28;20039;-86
2021/12/20 04:15:26;;;;;;;0.70;0.70;;;1.40;99.90;;;;;;5098395;28;20395;-86
2021/12/20 04:17:52;;;;;;;0.70;0.70;;;1.30;99.90;;;;;;5098514;28;20563;-87
2021/12/20 04:20:17;;;;;;;0.70;0.70;;;1.30;99.90;;;;;;5098132;28;20071;-87
2021/12/20 04:22:43;;;;;;;0.73;0.73;;;0.90;99.90;;;;;;5097302;28;20051;-85
2021/12/20 04:25:09;;;;;;;2.45;2.35;;;1.40;99.90;;;;;;5098055;28;20035;-87
2021/12/20 04:27:35;;;;;;;0.70;0.70;;;1.20;99.90;;;;;;5098340;28;20047;-85
2021/12/20 04:30:08;;;;;;;0.75;0.75;;;2.90;99.90;;;;;;5098028;28;20479;-87
2021/12/20 04:32:35;;;;;;;0.70;0.70;;;1.20;99.90;;;;;;5098036;28;20475;-85
2021/12/20 04:35:01;;;;;;;0.70;0.70;;;1.20;99.90;;;;;;5097525;28;20035;-87
2021/12/20 04:37:27;;;;;;;0.70;0.70;;;1.10;99.90;;;;;;5098081;28;20047;-86
2021/12/20 04:39:52;;;;;;;0.70;0.70;;;1.10;99.90;;;;;;5098568;28;20499;-89
2021/12/20 04:42:18;;;;;;;0.70;0.70;;;1.00;99.90;;;;;;5097559;28;20480;-86
2021/12/20 04:44:44;;;;;;;0.70;0.70;;;1.10;99.90;;;;;;5097507;28;20039;-87
2021/12/20 04:47:10;;;;;;;0.70;0.70;;;0.80;99.90;;;;;;5114935;28;20418;-87
2021/12/20 04:49:35;;;;;;;0.70;0.70;;;1.10;99.90;;;;;;5097895;28;20043;-85
2021/12/20 04:52:01;;;;;;;0.70;0.70;;;0.90;99.90;;;;;;5097142;28;20130;-86
2021/12/20 04:54:27;;;;;;;0.70;0.70;;;1.00;99.90;;;;;;5097594;28;20479;-86
2021/12/20 04:56:53;;;;;;;1.02;1.02;;;1.00;99.90;;;;;;5097253;28;20038;-85
2021/12/20 04:59:19;;;;;;;0.70;0.70;;;1.00;99.90;;;;;;5097237;28;20445;-85
2021/12/20 05:01:44;;;;;;;0.82;0.82;;;0.90;99.90;;;;;;5097694;28;20031;-85
2021/12/20 05:04:10;;;;;;;0.70;0.70;;;0.80;99.90;;;;;;5097925;28;20043;-87
2021/12/20 05:06:36;;;;;;;0.70;0.70;;;0.80;99.90;;;;;;5096970;28;20407;-86
2021/12/20 05:09:04;;;;;;;0.60;0.60;;;2.70;99.90;;;;;;5097081;28;20126;-87
2021/12/20 05:11:33;;;;;;;0.70;0.70;;;0.90;99.90;;;;;;5096882;28;20078;-85
2021/12/20 05:13:59;;;;;;;0.70;0.70;;;0.80;99.90;;;;;;5113575;28;20411;-85
2021/12/20 05:16:25;;;;;;;2.33;1.80;;;0.80;99.90;;;;;;5096910;28;20039;-87
2021/12/20 05:18:51;;;;;;;0.70;0.70;;;0.70;99.90;;;;;;5113849;28;20027;-86
2021/12/20 05:21:16;;;;;;;0.60;0.60;;;0.70;99.90;;;;;;5097136;28;20087;-86
2021/12/20 05:23:42;;;;;;;0.70;0.70;;;0.80;99.90;;;;;;5114322;28;20035;-87
2021/12/20 05:26:08;;;;;;;0.70;0.70;;;0.60;99.90;;;;;;5096993;28;20378;-87
2021/12/20 05:28:33;;;;;;;0.70;0.70;;;1.80;99.90;;;;;;5097213;28;20042;-85
2021/12/20 05:30:59;;;;;;;0.60;0.60;;;0.70;99.90;;;;;;5113792;28;20043;-86
2021/12/20 05:33:25;;;;;;;0.70;0.70;;;0.60;99.90;;;;;;5113725;28;20042;-87
2021/12/20 05:35:51;;;;;;;0.70;0.70;;;;;;;;;;5096561;28;20120;-87
2021/12/20 05:38:17;;;;;;;0.70;0.70;;;0.60;99.90;;;;;;5113709;28;20136;-87
2021/12/20 05:40:42;;;;;;;0.70;0.70;;;0.60;99.90;;;;;;5097001;28;20040;-85
2021/12/20 05:43:08;;;;;;;0.70;0.70;;;0.50;99.90;;;;;;5096700;28;20123;-86
2021/12/20 05:45:34;;;;;;;0.70;0.70;;;0.50;99.90;;;;;;5096655;28;20040;-86
2021/12/20 05:48:00;;;;;;;0.70;0.70;;;0.50;99.90;;;;;;5096445;28;20038;-86
2021/12/20 05:50:26;;;;;;;0.70;0.70;;;0.50;99.90;;;;;;5113316;28;20047;-85
2021/12/20 05:52:52;;;;;;;0.70;0.70;;;0.30;99.90;;;;;;5096306;28;20134;-87
2021/12/20 05:55:18;;;;;;;0.70;0.70;;;0.50;99.90;;;;;;5113546;28;20460;-86
2021/12/20 05:57:45;;;;;;;0.70;0.70;;;1.40;99.90;;;;;;5096174;28;20509;-87
2021/12/20 06:00:18;;;;;;;0.70;0.70;;;0.40;99.90;;;;;;5096311;28;20476;-86
2021/12/20 06:02:46;;;;;;;0.70;0.70;;;0.50;99.90;;;;;;5096119;28;20071;-85
2021/12/20 06:05:12;;;;;;;0.70;0.70;;;0.40;99.90;;;;;;5113897;28;20039;-88
2021/12/20 06:07:41;;;;;;;2.17;2.08;;;0.40;99.90;;;;;;5108230;28;20039;-85
2021/12/20 06:10:10;;;;;;;0.70;0.70;;;0.40;99.90;;;;;;5110348;28;20044;-86
2021/12/20 06:12:36;;;;;;;0.70;0.70;;;0.40;99.90;;;;;;5113429;28;20039;-85
2021/12/20 06:15:03;;;;;;;1.10;1.07;;;0.30;99.90;;;;;;5112904;28;20036;-86
2021/12/20 06:17:29;;;;;;;0.77;0.77;;;0.40;99.90;;;;;;5095807;28;20040;-85
2021/12/20 06:19:54;;;;;;;0.70;0.70;;;0.50;99.90;;;;;;5096175;28;20039;-87
2021/12/20 06:22:20;;;;;;;0.73;0.73;;;0.40;99.90;;;;;;5095799;28;20036;-86
2021/12/20 06:24:46;;;;;;;0.60;0.60;;;0.30;99.90;;;;;;5112980;28;20077;-87
2021/12/20 06:27:11;;;;;;;0.80;0.80;;;0.90;99.90;;;;;;5113059;28;20498;-86
2021/12/20 06:29:37;;;;;;;0.70;0.70;;;0.30;99.90;;;;;;5095872;28;20113;-87
2021/12/20 06:32:03;;;;;;;0.70;0.70;;;;;;;;;;5112928;28;20035;-88
2021/12/20 06:34:30;;;;;;;0.70;0.70;;;0.30;99.90;;;;;;5095941;28;20088;-86
2021/12/20 06:36:55;;;;;;;0.80;0.80;;;-0.10;99.90;;;;;;5113573;28;20076;-82
2021/12/20 06:39:23;;;;;;;0.70;0.70;;;;;;;;;;5115715;28;20031;-88
2021/12/20 06:41:51;;;;;;;0.70;0.70;;;0.30;99.90;;;;;;5096623;28;20035;-83
2021/12/20 06:44:18;;;;;;;0.70;0.70;;;0.20;99.90;;;;;;5114180;28;20036;-82
2021/12/20 06:46:44;;;;;;;0.80;0.80;;;0.20;99.90;;;;;;5117375;28;20048;-86
2021/12/20 06:49:10;;;;;;;0.80;0.80;;;0.20;99.90;;;;;;5100190;28;20038;-86
2021/12/20 06:51:42;;;;;;;0.80;0.80;;;0.10;99.90;;;;;;5116350;28;20429;-85
2021/12/20 06:54:14;;;;;;;0.70;0.70;;;0.10;99.90;;;;;;5100484;28;20051;-89
2021/12/20 06:56:39;;;;;;;0.80;0.80;;;-0.20;99.90;;;;;;5117846;28;20487;-85
2021/12/20 06:59:05;;;;;;;0.63;0.63;;;0.10;99.90;;;;;;5102570;28;20117;-85
2021/12/20 07:01:31;;;;;;;0.70;0.70;;;0.10;99.90;;;;;;5101000;28;20039;-87
2021/12/20 07:03:57;;;;;;;0.80;0.80;;;-0.20;99.90;;;;;;5101147;28;20552;-84
2021/12/20 07:06:23;;;;;;;0.80;0.80;;;0.00;99.90;;;;;;5099924;28;20046;-82
2021/12/20 07:08:49;;;;;;;0.80;0.80;;;0.00;99.90;;;;;;5116615;28;20625;-85
2021/12/20 07:11:14;;;;;;;0.70;0.70;;;-0.20;99.90;;;;;;5116464;28;20040;-82
2021/12/20 07:13:41;;;;;;;0.75;0.75;;;-0.10;99.90;;;;;;5116335;28;20421;-86
2021/12/20 07:16:07;;;;;;;0.90;0.90;;;-0.10;99.90;;;;;;5098732;28;20024;-84
2021/12/20 07:18:33;;;;;;;0.80;0.80;;;-0.10;99.90;;;;;;5133360;27;20036;-84
2021/12/20 07:20:59;;;;;;;0.70;0.70;;;-0.10;99.90;;;;;;5099085;28;20031;-86
2021/12/20 07:23:25;;;;;;;0.70;0.70;;;-0.20;99.90;;;;;;5116195;28;20070;-85
2021/12/20 07:25:51;;;;;;;0.80;0.80;;;0.10;99.90;;;;;;5150279;27;20122;-77
2021/12/20 07:28:17;;;;;;;0.90;0.90;;;-0.20;99.90;;;;;;5116255;28;20116;-87
2021/12/20 07:30:46;;;;;;;0.80;0.80;;;-0.10;99.90;;;;;;5133405;27;20483;-82
2021/12/20 07:33:12;;;;;;;1.85;1.75;;;-0.20;99.90;;;;;;5115997;27;20040;-82
2021/12/20 07:35:38;;;;;;;0.73;0.73;;;0.10;99.90;;;;;;5098720;28;20036;-84
2021/12/20 07:38:04;;;;;;;0.80;0.80;;;-0.20;99.90;;;;;;5115854;28;20071;-84
2021/12/20 07:40:30;;;;;;;0.70;0.70;;;-0.20;99.90;;;;;;5098734;28;20042;-82
2021/12/20 07:42:55;;;;;;;3.25;3.00;;;-0.30;99.90;;;;;;5117120;28;20036;-83
2021/12/20 07:45:21;;;;;;;0.73;0.73;;;-1.00;99.90;;;;;;5098782;28;20040;-76
2021/12/20 07:47:48;;;;;;;0.70;0.70;;;-0.30;99.90;;;;;;5116789;28;20061;-79
2021/12/20 07:50:15;;;;;;;0.80;0.80;;;-0.30;99.90;;;;;;5115699;28;20483;-83
2021/12/20 07:52:41;;;;;;;0.80;0.80;;;-0.30;99.90;;;;;;5081570;28;20487;-86
2021/12/20 07:55:08;;;;;;;0.80;0.80;;;-0.30;99.90;;;;;;5098527;28;20091;-84
2021/12/20 07:57:33;;;;;;;;;;;-0.30;99.90;;;;;;5097932;28;20036;-77
2021/12/20 07:59:59;;;;;;;0.70;0.70;;;-0.40;99.90;;;;;;5115875;28;19916;-86
2021/12/20 08:02:25;;;;;;;0.80;0.80;;;-0.30;99.90;;;;;;5098979;28;20039;-88
2021/12/20 08:04:51;;;;;;;0.80;0.80;;;-0.30;99.90;;;;;;5098568;28;20078;-84
2021/12/20 08:07:21;;;;;;;0.70;0.70;;;-0.40;99.90;;;;;;5116935;28;20047;-83
2021/12/20 08:09:47;;;;;;;0.77;0.77;;;0.00;99.90;;;;;;5098197;28;20278;-87
2021/12/20 08:12:13;;;;;;;0.70;0.70;;;-0.40;99.90;;;;;;5098303;28;20520;-87
2021/12/20 08:14:38;;;;;;;0.70;0.70;;;-0.50;99.90;;;;;;5132137;27;20040;-82
2021/12/20 08:17:04;;;;;;;0.90;0.90;;;-0.50;99.90;;;;;;5149508;27;20447;-83
2021/12/20 08:19:30;;;;;;;0.80;0.80;;;-0.50;99.90;;;;;;5131977;27;20040;-82
2021/12/20 08:21:55;;;;;;;0.73;0.73;;;-0.40;99.90;;;;;;5116444;28;20067;-83
2021/12/20 08:24:21;;;;;;;0.80;0.80;;;-0.40;99.90;;;;;;5115937;28;20047;-82
2021/12/20 08:26:47;;;;;;;0.80;0.80;;;-0.50;99.90;;;;;;5114756;28;20128;-83
2021/12/20 08:29:13;;;;;;;0.70;0.70;;;-0.50;99.90;;;;;;5115889;28;20085;-84
2021/12/20 08:31:39;;;;;;;0.80;0.80;;;-0.50;99.90;;;;;;5114376;28;20047;-88
2021/12/20 08:34:05;;;;;;;0.80;0.80;;;-0.50;99.90;;;;;;5114278;28;20135;-80
2021/12/20 08:36:32;;;;;;;0.70;0.70;;;-0.40;99.90;;;;;;5115838;28;20039;-84
2021/12/20 08:38:57;;;;;;;0.70;0.70;;;-0.40;99.90;;;;;;5115701;28;20032;-83
2021/12/20 08:41:23;;;;;;;0.70;0.70;;;-0.50;99.90;;;;;;5148675;27;20545;-83
2021/12/20 08:43:49;;;;;;;0.80;0.80;;;-0.40;99.90;;;;;;5131150;27;20040;-84
2021/12/20 08:46:15;;;;;;;0.70;0.70;;;-0.40;99.90;;;;;;5115245;28;20058;-83
2021/12/20 08:48:43;;;;;;;0.80;0.80;;;-0.40;99.90;;;;;;5097639;28;20406;-84
2021/12/20 08:51:09;;;;;;;0.80;0.80;;;-0.30;99.90;;;;;;5115746;28;20054;-84
2021/12/20 08:53:35;;;;;;;0.70;0.70;;;-0.30;99.90;;;;;;5114137;28;20116;-83
2021/12/20 08:56:01;;;;;;;0.80;0.80;;;-0.30;99.90;;;;;;5115760;28;20047;-79
2021/12/20 08:58:27;;;;;;;0.80;0.80;;;-0.30;99.90;;;;;;5125272;28;20119;-88
2021/12/20 09:00:54;;;;;;;0.80;0.80;;;-0.30;99.90;;;;;;5163952;27;20043;-87
2021/12/20 09:03:21;;;;;;;0.70;0.70;;;-0.30;99.90;;;;;;5116747;28;20472;-87
2021/12/20 09:05:46;;;;;;;1.23;1.13;;;-0.30;99.90;;;;;;5115010;28;20407;-86
2021/12/20 09:08:14;;;;;;;0.80;0.80;;;;;;;;;;5132747;27;20039;-89
2021/12/20 09:10:40;;;;;;;0.70;0.70;;;-0.20;99.90;;;;;;5097391;28;20040;-87
2021/12/20 09:13:06;;;;;;;0.85;0.85;;;-0.20;99.90;;;;;;5132776;27;20083;-89
2021/12/20 09:15:32;;;;;;;0.70;0.70;;;0.00;99.90;;;;;;5148586;27;20047;-88
2021/12/20 09:17:59;;;;;;;1.65;1.55;;;;;;;;;;5097067;28;20048;-89
2021/12/20 09:20:25;;;;;;;0.80;0.80;;;0.00;99.90;;;;;;5096990;28;20042;-90
2021/12/20 09:22:53;;;;;;;0.80;0.80;;;0.10;99.90;;;;;;5113385;28;20278;-74
2021/12/20 09:25:25;;;;;;;0.80;0.80;;;0.20;99.90;;;;;;5114976;28;20094;-81
2021/12/20 09:27:52;;;;;;;0.70;0.70;;;0.30;99.90;;;;;;5113401;28;20043;-83
2021/12/20 09:30:18;;;;;;;0.80;0.80;;;0.30;99.90;;;;;;5114468;28;20062;-78
2021/12/20 09:32:44;;;;;;;0.70;0.70;;;0.40;99.90;;;;;;5114874;27;20085;-81
2021/12/20 09:35:10;;;;;;;2.42;2.22;;;0.40;99.90;;;;;;5114685;28;20039;-82
2021/12/20 09:37:38;;;;;;;0.70;0.70;;;0.40;99.90;;;;;;5113431;28;20028;-81
2021/12/20 09:40:06;;;;;;;0.85;0.85;;;0.50;99.90;;;;;;5114703;28;20467;-82
2021/12/20 09:42:33;;;;;;;0.70;0.70;;;0.50;99.90;;;;;;5114531;28;20100;-82
2021/12/20 09:45:00;;;;;;;1.85;1.75;;;0.60;99.90;;;;;;5114176;28;20036;-81
2021/12/20 09:47:31;;;;;;;0.90;0.90;;;0.70;99.90;;;;;;5114190;28;20051;-78
2021/12/20 09:49:57;;;;;;;0.70;0.70;;;0.80;99.90;;;;;;5113423;28;20031;-83
2021/12/20 09:52:24;;;;;;;0.70;0.70;;;0.80;99.90;;;;;;5079021;28;20055;-81
2021/12/20 09:54:49;;;;;;;0.70;0.70;;;1.00;99.90;;;;;;5112850;28;20531;-83
2021/12/20 09:57:20;;;;;;;2.72;2.55;;;1.00;99.90;;;;;;5113870;28;20101;-84
2021/12/20 09:59:47;;;;;;;0.70;0.70;;;1.10;99.90;;;;;;5114252;28;20153;-84
2021/12/20 10:02:15;;;;;;;0.70;0.70;;;1.20;99.90;;;;;;5114225;28;20046;-82
2021/12/20 10:04:41;;;;;;;0.70;0.70;;;1.30;99.90;;;;;;5113920;28;20542;-82
2021/12/20 10:07:08;;;;;;;0.70;0.70;;;1.40;99.90;;;;;;5113848;28;20070;-84
2021/12/20 10:09:35;;;;;;;0.70;0.70;;;1.50;99.90;;;;;;5114176;28;20039;-80
2021/12/20 10:12:10;;;;;;;;;;;1.60;99.90;;;;;;5114423;28;20040;-81
2021/12/20 10:14:56;;;;;;;0.80;0.80;;;1.80;99.90;;;;;;5113745;28;19931;-82
2021/12/20 10:17:22;;;;;;;0.60;0.60;;;1.90;99.90;;;;;;5112989;28;20036;-85
2021/12/20 10:19:49;;;;;;;0.77;0.77;;;2.00;99.90;;;;;;5146389;27;20450;-81
2021/12/20 10:22:29;;;;;;;0.70;0.70;;;2.10;99.90;;;;;;5112599;28;20028;-82
2021/12/20 10:24:58;;;;;;;0.73;0.73;;;2.20;99.90;;;;;;5146936;27;20039;-81
2021/12/20 10:27:33;;;;;;;0.90;0.90;;;2.30;99.90;;;;;;5114057;28;20090;-81
2021/12/20 10:30:00;;;;;;;0.70;0.70;;;2.40;99.90;;;;;;5113960;28;20038;-80
2021/12/20 10:32:41;;;;;;;1.08;1.02;;;2.50;99.90;;;;;;5112575;28;20075;-82
2021/12/20 10:35:24;;;;;;;0.70;0.70;;;2.70;99.90;;;;;;5113357;28;20039;-81
2021/12/20 10:37:51;;;;;;;0.60;0.60;;;2.70;99.90;;;;;;5113540;28;20521;-80
2021/12/20 10:40:16;;;;;;;0.70;0.70;;;2.80;99.90;;;;;;5113957;28;20124;-80
2021/12/20 10:42:42;;;;;;;0.90;0.90;;;2.90;99.90;;;;;;5113637;28;20075;-84
2021/12/20 10:45:13;;;;;;;0.70;0.70;;;3.00;99.90;;;;;;5113577;28;20098;-83
2021/12/20 10:47:43;;;;;;;0.70;0.70;;;3.10;99.90;;;;;;5113823;28;20109;-79
2021/12/20 10:50:30;;;;;;;0.70;0.70;;;3.20;99.90;;;;;;5113740;28;20036;-81
2021/12/20 10:53:19;;;;;;;0.70;0.70;;;3.30;99.90;;;;;;5112503;28;20056;-84
2021/12/20 10:55:55;;;;;;;0.70;0.70;;;3.40;99.90;;;;;;5112101;28;20513;-81
2021/12/20 10:58:28;;;;;;;0.60;0.60;;;3.40;99.90;;;;;;5113781;28;20123;-79
2021/12/20 11:02:08;;;;;;;0.60;0.60;;;3.50;99.90;;;;;;5113717;28;20042;-79
2021/12/20 11:10:26;;;;;;;0.60;0.60;;;3.60;99.90;;;;;;5113182;28;20065;-81
2021/12/20 11:12:52;;;;;;;0.60;0.60;;;3.80;99.90;;;;;;5112027;28;20079;-81
2021/12/20 11:15:17;;;;;;;6.13;3.00;;;3.90;99.90;;;;;;5113372;28;20075;-81
2021/12/20 11:17:46;;;;;;;0.60;0.60;;;4.40;99.90;;;;;;5146246;27;20039;-84
2021/12/20 11:20:22;;;;;;;0.60;0.60;;;4.00;99.90;;;;;;5113538;28;20038;-82
2021/12/20 11:22:48;;;;;;;0.60;0.60;;;4.10;99.90;;;;;;5095173;28;20035;-84
2021/12/20 11:25:15;;;;;;;0.70;0.70;;;4.10;99.90;;;;;;5111635;28;20035;-85
2021/12/20 11:27:51;;;;;;;0.60;0.60;;;4.10;99.90;;;;;;5111636;28;20040;-82
2021/12/20 11:30:22;;;;;;;0.60;0.60;;;4.20;99.90;;;;;;5113481;28;20051;-83
2021/12/20 11:32:49;;;;;;;0.60;0.60;;;4.30;99.90;;;;;;5098618;28;20198;-83
2021/12/20 11:35:17;;;;;;;;;;;4.30;99.90;;;;;;5116044;28;20499;-86
2021/12/20 11:37:43;;;;;;;0.60;0.60;;;4.40;99.90;;;;;;5098750;28;19920;-83
2021/12/20 11:40:10;;;;;;;0.80;0.80;;;4.50;99.90;;;;;;5098568;28;20051;-83
2021/12/20 11:42:36;;;;;;;0.60;0.60;;;4.60;99.90;;;;;;5117269;28;20059;-84
2021/12/20 11:45:07;;;;;;;0.60;0.60;;;4.60;99.90;;;;;;5116860;28;20044;-87
2021/12/20 11:47:48;;;;;;;0.60;0.60;;;4.70;99.90;;;;;;5115425;28;20042;-84
2021/12/20 11:50:18;;;;;;;0.70;0.70;;;4.70;99.90;;;;;;5115520;28;20048;-82
2021/12/20 11:52:46;;;;;;;0.60;0.60;;;4.80;99.90;;;;;;5117686;28;20090;-84
2021/12/20 11:55:23;;;;;;;0.60;0.60;;;4.90;99.90;;;;;;5115460;28;20536;-83
2021/12/20 11:57:52;;;;;;;0.60;0.60;;;4.90;99.90;;;;;;5115299;28;20032;-85
2021/12/20 12:00:23;;;;;;;0.60;0.60;;;4.90;99.90;;;;;;5116359;28;20044;-83
2021/12/20 12:03:02;;;;;;;0.60;0.60;;;4.90;99.90;;;;;;5114702;28;20047;-83
2021/12/20 12:05:32;;;;;;;0.60;0.60;;;5.00;99.90;;;;;;5099244;28;20031;-83
2021/12/20 12:08:24;;;;;;;0.60;0.60;;;5.00;99.90;;;;;;5115098;28;20124;-84
2021/12/20 12:10:52;;;;;;;0.60;0.60;;;5.00;99.90;;;;;;5116021;28;20041;-84
2021/12/20 12:13:19;;;;;;;0.60;0.60;;;5.10;99.90;;;;;;5114883;28;20042;-83
2021/12/20 12:15:59;;;;;;;0.60;0.60;;;5.30;99.90;;;;;;5114654;28;20039;-84
2021/12/20 12:18:47;;;;;;;0.57;0.57;;;4.90;99.90;;;;;;5116241;28;20040;-83
2021/12/20 12:21:31;;;;;;;0.60;0.60;;;5.20;99.90;;;;;;5114851;28;20036;-84
2021/12/20 12:23:57;;;;;;;0.70;0.70;;;5.10;99.90;;;;;;5114673;28;20046;-79
2021/12/20 12:26:32;;;;;;;0.67;0.67;;;5.20;99.90;;;;;;5115862;28;20036;-82
2021/12/20 12:28:58;;;;;;;0.50;0.50;;;5.10;99.90;;;;;;5115787;28;20035;-83
2021/12/20 12:31:26;;;;;;;0.63;0.63;;;5.20;99.90;;;;;;5115588;28;20403;-85
2021/12/20 12:34:08;;;;;;;0.60;0.60;;;5.60;99.90;;;;;;5097450;28;20042;-83
2021/12/20 12:36:41;;;;;;;0.60;0.60;;;5.20;99.90;;;;;;5115768;28;20028;-82
2021/12/20 12:39:12;;;;;;;0.60;0.60;;;5.20;99.90;;;;;;5097905;28;20420;-84
2021/12/20 12:41:50;;;;;;;0.60;0.60;;;5.10;99.90;;;;;;5114256;28;20077;-83
2021/12/20 12:44:22;;;;;;;0.60;0.60;;;5.10;99.90;;;;;;5096850;28;20122;-84
2021/12/20 12:47:13;;;;;;;0.88;0.88;;;5.10;99.90;;;;;;5096986;28;20122;-84
2021/12/20 12:49:46;;;;;;;0.60;0.60;;;5.10;99.90;;;;;;5089897;28;20044;-84
2021/12/20 12:52:19;;;;;;;0.60;0.60;;;5.40;99.90;;;;;;5096931;28;20112;-84
2021/12/20 12:54:53;;;;;;;0.60;0.60;;;5.10;99.90;;;;;;5096964;28;20052;-84
2021/12/20 12:57:25;;;;;;;0.60;0.60;;;5.10;99.90;;;;;;5114395;28;20036;-83
2021/12/20 12:59:56;;;;;;;0.60;0.60;;;5.00;99.90;;;;;;5114253;28;20404;-86
2021/12/20 13:02:24;;;;;;;0.60;0.60;;;5.00;99.90;;;;;;5113916;28;20051;-84
2021/12/20 13:05:06;;;;;;;0.60;0.60;;;5.00;99.90;;;;;;5114743;28;20050;-84
2021/12/20 13:08:07;;;;;;;0.50;0.50;;;5.00;99.90;;;;;;5115707;28;20035;-85
2021/12/20 13:10:39;;;;;;;0.60;0.60;;;5.00;99.90;;;;;;4999677;28;20124;-83
2021/12/20 13:13:22;;;;;;;0.60;0.60;;;5.00;99.90;;;;;;5102247;28;20576;-84
2021/12/20 13:15:56;;;;;;;0.60;0.60;;;5.00;99.90;;;;;;5113792;28;20040;-82
2021/12/20 13:18:35;;;;;;;0.60;0.60;;;5.00;99.90;;;;;;5097012;28;20035;-83
2021/12/20 13:21:02;;;;;;;0.60;0.60;;;5.00;99.90;;;;;;5096837;28;20040;-84
2021/12/20 13:23:36;;;;;;;0.60;0.60;;;5.00;99.90;;;;;;5096552;28;20519;-84